Lakeland, Minnesota
Current Conditions -  °F | °C
As of 6:11 AM on Saturday 20 Dec 2014 (Local Time) from K21D Reporting Station
Overcast Overcast  
Wind Chill: 23°   Ceiling: 1200
Heat Index: 30°   Visibility: 7mi
Dew Point: 28°   Wind: 7mph
Humidity: 93%   Direction: 160°SSE
Pressure: 30.16"   Gusts: NA
Location:  44.96°N, 92.77°W
Report Text: K21D 201211Z AUTO 16006KT 7SM OVC012 M01/M02 A3016 RMK AO2
Loading
Personal Weather Stations






























Interactive Weather Map New forecast layout! Learn more

10-Day Weather Forecast

Advertisements
Track Severe Weather on mobile